createdAt,value
2022-12-29T00:02:00.033Z,100.00
2022-12-29T00:04:26.699Z,100.00
2022-12-29T00:06:54.343Z,100.00
2022-12-29T00:09:21.421Z,100.00
2022-12-29T00:12:12.495Z,100.00
2022-12-29T00:14:57.667Z,100.00
2022-12-29T00:17:24.368Z,100.00
2022-12-29T00:20:09.719Z,100.00
2022-12-29T00:23:20.814Z,100.00
2022-12-29T00:26:05.967Z,100.00
2022-12-29T00:28:57.677Z,100.00
2022-12-29T00:31:42.858Z,100.00
2022-12-29T00:34:30.963Z,100.00
2022-12-29T00:36:58.124Z,100.00
2022-12-29T00:39:43.695Z,100.00
2022-12-29T00:42:59.719Z,100.00
2022-12-29T00:45:26.438Z,100.00
2022-12-29T00:47:53.089Z,100.00
2022-12-29T00:50:19.762Z,100.00
2022-12-29T00:52:52.826Z,100.00
2022-12-29T00:55:39.292Z,100.00
2022-12-29T00:58:05.982Z,100.00
2022-12-29T01:00:32.721Z,100.00
2022-12-29T01:02:59.584Z,100.00
2022-12-29T01:05:26.423Z,100.00
2022-12-29T01:07:53.070Z,100.00
2022-12-29T01:10:19.701Z,100.00
2022-12-29T01:12:46.481Z,100.00
2022-12-29T01:23:32.244Z,100.00
2022-12-29T01:26:34.529Z,100.00
2022-12-29T01:29:35.655Z,100.00
2022-12-29T01:32:02.361Z,100.00
2022-12-29T01:39:06.666Z,100.00
2022-12-29T01:42:20.635Z,100.00
2022-12-29T01:45:04.772Z,100.00
2022-12-29T01:47:53.113Z,100.00
2022-12-29T01:55:05.636Z,100.00
2022-12-29T01:58:06.605Z,100.00
2022-12-29T02:01:09.251Z,100.00
2022-12-29T02:03:36.882Z,100.00
2022-12-29T02:06:23.642Z,100.00
2022-12-29T02:09:14.135Z,100.00
2022-12-29T02:12:21.850Z,100.00
2022-12-29T02:15:00.837Z,100.00
2022-12-29T02:17:57.483Z,100.00
2022-12-29T02:20:36.235Z,100.00
2022-12-29T02:23:27.982Z,100.00
2022-12-29T02:26:55.688Z,100.00
2022-12-29T02:29:54.762Z,100.00
2022-12-29T02:32:33.539Z,100.00
2022-12-29T02:35:34.652Z,100.00
2022-12-29T02:38:24.500Z,100.00
2022-12-29T02:49:11.222Z,100.00
2022-12-29T02:55:36.876Z,100.00
2022-12-29T03:05:42.992Z,100.00
2022-12-29T03:09:21.206Z,100.00
2022-12-29T03:12:14.456Z,100.00
2022-12-29T03:15:25.123Z,100.00
2022-12-29T03:18:11.425Z,100.00
2022-12-29T03:20:45.257Z,100.00
2022-12-29T03:23:13.640Z,100.00
2022-12-29T03:25:53.923Z,100.00
2022-12-29T03:37:17.800Z,100.00
2022-12-29T03:40:05.958Z,100.00
2022-12-29T03:42:54.484Z,100.00
2022-12-29T03:45:59.377Z,100.00
2022-12-29T03:48:26.078Z,100.00
2022-12-29T03:50:52.721Z,100.00
2022-12-29T03:53:41.212Z,100.00
2022-12-29T03:56:07.921Z,100.00
2022-12-29T04:02:25.418Z,100.00
2022-12-29T04:05:17.766Z,100.00
2022-12-29T04:07:47.010Z,100.00
2022-12-29T04:11:11.137Z,100.00
2022-12-29T04:13:41.859Z,100.00
2022-12-29T04:16:09.560Z,100.00
2022-12-29T04:18:36.220Z,100.00
2022-12-29T04:24:55.888Z,100.00
2022-12-29T04:31:33.215Z,100.00
2022-12-29T04:38:29.788Z,100.00
2022-12-29T04:40:56.478Z,100.00
2022-12-29T04:43:23.331Z,100.00
2022-12-29T04:49:40.232Z,100.00
2022-12-29T05:00:20.710Z,100.00
2022-12-29T05:06:58.330Z,100.00
2022-12-29T05:13:19.527Z,100.00
2022-12-29T05:15:54.607Z,100.00
2022-12-29T05:19:01.824Z,100.00
2022-12-29T05:21:28.477Z,100.00
2022-12-29T05:23:55.092Z,100.00
2022-12-29T05:26:21.761Z,100.00
2022-12-29T05:28:48.426Z,100.00
2022-12-29T05:35:06.213Z,100.00
2022-12-29T05:37:32.865Z,99.80
2022-12-29T05:40:12.726Z,99.78
2022-12-29T05:42:39.464Z,99.66
2022-12-29T05:45:08.239Z,99.83
2022-12-29T05:47:35.686Z,99.64
2022-12-29T05:50:03.002Z,99.81
2022-12-29T05:52:29.668Z,99.59
2022-12-29T06:07:07.971Z,98.61
2022-12-29T06:10:00.783Z,98.40
2022-12-29T06:12:27.510Z,98.30
2022-12-29T06:14:55.449Z,98.20
2022-12-29T06:18:19.584Z,98.34
2022-12-29T06:21:40.634Z,98.03
2022-12-29T06:25:10.634Z,98.19
2022-12-29T06:35:19.137Z,97.45
2022-12-29T06:37:45.748Z,97.83
2022-12-29T06:44:02.951Z,97.68
2022-12-29T06:50:48.724Z,97.52
2022-12-29T06:53:17.859Z,97.68
2022-12-29T06:55:52.042Z,97.63
2022-12-29T06:58:18.711Z,97.51
2022-12-29T07:00:45.405Z,97.32
2022-12-29T07:03:12.240Z,97.19
2022-12-29T07:05:38.928Z,97.19
2022-12-29T07:08:22.177Z,97.40
2022-12-29T07:10:48.877Z,97.16
2022-12-29T07:14:15.574Z,96.75
2022-12-29T07:17:26.659Z,96.84
2022-12-29T07:19:53.310Z,96.40
2022-12-29T07:22:19.950Z,96.63
2022-12-29T07:28:49.534Z,96.41
2022-12-29T07:31:44.050Z,96.33
2022-12-29T07:34:10.904Z,96.51
2022-12-29T07:37:42.822Z,96.18
2022-12-29T07:40:11.201Z,96.20
2022-12-29T07:43:34.685Z,96.37
2022-12-29T07:46:01.674Z,96.22
2022-12-29T07:48:28.449Z,96.48
2022-12-29T07:55:27.009Z,96.43
2022-12-29T08:01:51.380Z,96.60
2022-12-29T08:04:18.297Z,97.06
2022-12-29T08:06:46.533Z,96.58
2022-12-29T08:13:03.862Z,96.51
2022-12-29T08:15:32.663Z,96.64
2022-12-29T08:18:01.837Z,96.61
2022-12-29T08:20:31.185Z,96.64
2022-12-29T08:22:58.168Z,96.58
2022-12-29T08:33:46.897Z,96.17
2022-12-29T08:36:33.922Z,96.45
2022-12-29T08:43:21.887Z,96.13
2022-12-29T08:45:48.519Z,96.14
2022-12-29T08:48:37.657Z,96.00
2022-12-29T08:51:39.110Z,95.94
2022-12-29T08:54:05.863Z,95.81
2022-12-29T08:56:32.725Z,95.83
2022-12-29T08:58:59.359Z,95.76
2022-12-29T09:01:26.220Z,96.08
2022-12-29T09:04:14.306Z,96.02
2022-12-29T09:07:02.148Z,95.79
2022-12-29T09:09:28.806Z,95.65
2022-12-29T09:11:55.448Z,95.78
2022-12-29T09:14:58.397Z,95.64
2022-12-29T09:17:43.726Z,95.61
2022-12-29T09:20:35.514Z,95.52
2022-12-29T09:23:14.355Z,95.61
2022-12-29T09:25:41.010Z,95.49
2022-12-29T09:28:08.733Z,95.68
2022-12-29T09:30:35.415Z,95.50
2022-12-29T09:33:02.077Z,95.66
2022-12-29T09:35:29.372Z,95.69
2022-12-29T09:37:56.030Z,95.66
2022-12-29T09:41:15.537Z,95.43
2022-12-29T09:44:27.198Z,95.52
2022-12-29T09:47:49.686Z,95.55
2022-12-29T09:50:38.224Z,95.78
2022-12-29T09:53:23.736Z,95.77
2022-12-29T09:56:24.443Z,95.42
2022-12-29T09:59:18.384Z,95.63
2022-12-29T10:02:17.682Z,95.80
2022-12-29T10:05:06.103Z,95.72
2022-12-29T10:12:33.541Z,95.63
2022-12-29T10:15:27.863Z,95.75
2022-12-29T10:18:15.608Z,95.65
2022-12-29T10:21:13.900Z,95.94
2022-12-29T10:32:18.781Z,95.81
2022-12-29T10:34:59.386Z,96.04
2022-12-29T10:38:02.738Z,95.79
2022-12-29T10:40:55.530Z,95.88
2022-12-29T10:43:40.539Z,96.05
2022-12-29T10:46:12.268Z,96.33
2022-12-29T10:48:59.234Z,96.25
2022-12-29T10:51:30.390Z,96.10
2022-12-29T10:54:00.398Z,96.19
2022-12-29T10:56:41.628Z,96.31
2022-12-29T10:59:26.375Z,96.43
2022-12-29T11:14:18.991Z,96.43
2022-12-29T11:16:57.919Z,96.23
2022-12-29T11:19:28.414Z,96.03
2022-12-29T11:21:55.755Z,96.26
2022-12-29T11:25:03.034Z,96.25
2022-12-29T11:27:40.870Z,96.21
2022-12-29T11:31:06.037Z,96.41
2022-12-29T11:34:17.531Z,96.53
2022-12-29T11:36:44.233Z,96.53
2022-12-29T11:39:27.122Z,96.57
2022-12-29T11:41:54.922Z,96.50
2022-12-29T11:44:21.869Z,96.32
2022-12-29T11:46:52.652Z,96.46
2022-12-29T11:49:42.717Z,96.31
2022-12-29T11:56:05.809Z,96.12
2022-12-29T11:58:35.768Z,96.00
2022-12-29T12:01:07.733Z,96.06
2022-12-29T12:03:39.284Z,96.09
2022-12-29T12:06:09.581Z,96.06
2022-12-29T12:08:54.441Z,95.85
2022-12-29T12:11:37.955Z,95.90
2022-12-29T12:14:20.349Z,95.68
2022-12-29T12:17:04.679Z,95.62
2022-12-29T12:19:43.784Z,95.59
2022-12-29T12:22:46.382Z,95.57
2022-12-29T12:25:22.792Z,95.08
2022-12-29T12:28:03.972Z,95.27
2022-12-29T12:30:43.235Z,95.41
2022-12-29T12:33:32.012Z,95.35
2022-12-29T12:36:47.569Z,95.49
2022-12-29T12:39:26.435Z,95.41
2022-12-29T12:42:19.383Z,95.61
2022-12-29T12:44:57.235Z,95.22
2022-12-29T12:47:52.203Z,95.35
2022-12-29T12:50:39.314Z,95.50
2022-12-29T12:53:26.129Z,95.24
2022-12-29T12:56:30.251Z,94.78
2022-12-29T12:59:44.906Z,94.68
2022-12-29T13:02:11.615Z,94.35
2022-12-29T13:04:48.509Z,94.54
2022-12-29T13:07:38.802Z,94.57
2022-12-29T13:10:41.950Z,94.52
2022-12-29T13:13:30.433Z,94.29
2022-12-29T13:16:31.632Z,94.18
2022-12-29T13:19:35.609Z,94.13
2022-12-29T13:22:38.093Z,94.21
2022-12-29T13:25:31.116Z,94.10
2022-12-29T13:28:19.556Z,94.10
2022-12-29T13:31:15.244Z,93.83
2022-12-29T13:33:47.693Z,93.85
2022-12-29T13:36:29.331Z,93.58
2022-12-29T13:39:22.985Z,93.31
2022-12-29T13:41:54.295Z,93.45
2022-12-29T13:45:06.244Z,93.40
2022-12-29T13:47:42.503Z,93.23
2022-12-29T13:50:19.453Z,92.91
2022-12-29T13:53:10.781Z,93.09
2022-12-29T13:55:50.125Z,92.91
2022-12-29T13:58:25.727Z,92.54
2022-12-29T14:01:03.948Z,92.12
2022-12-29T14:04:09.056Z,91.96
2022-12-29T14:14:32.238Z,91.26
2022-12-29T14:17:16.160Z,90.96
2022-12-29T14:19:45.701Z,90.97
2022-12-29T14:23:22.173Z,90.74
2022-12-29T14:26:13.607Z,90.16
2022-12-29T14:28:49.183Z,90.27
2022-12-29T14:31:30.775Z,89.95
2022-12-29T14:34:12.496Z,90.00
2022-12-29T14:41:20.530Z,89.59
2022-12-29T14:44:00.745Z,89.65
2022-12-29T14:47:00.094Z,89.78
2022-12-29T14:49:34.327Z,89.67
2022-12-29T14:52:24.929Z,89.86
2022-12-29T14:54:53.887Z,90.03
2022-12-29T14:58:13.723Z,89.79
2022-12-29T15:01:40.812Z,89.92
2022-12-29T15:04:19.331Z,89.97
2022-12-29T15:15:00.274Z,89.91
2022-12-29T15:17:29.145Z,90.16
2022-12-29T15:19:57.943Z,89.92
2022-12-29T15:23:11.986Z,90.15
2022-12-29T15:26:12.803Z,89.97
2022-12-29T15:33:35.310Z,90.29
2022-12-29T15:36:04.992Z,90.19
2022-12-29T15:38:37.241Z,90.34
2022-12-29T15:42:05.465Z,90.22
2022-12-29T15:44:42.595Z,90.27
2022-12-29T15:48:16.585Z,90.59
2022-12-29T15:50:44.234Z,90.87
2022-12-29T15:53:29.709Z,90.73
2022-12-29T15:56:03.890Z,91.06
2022-12-29T15:58:31.753Z,90.89
2022-12-29T16:01:05.437Z,91.13
2022-12-29T16:07:56.281Z,91.55
2022-12-29T16:10:36.984Z,91.66
2022-12-29T16:13:35.534Z,91.50
2022-12-29T16:16:17.427Z,91.48
2022-12-29T16:18:45.720Z,91.97
2022-12-29T16:25:52.532Z,92.03
2022-12-29T16:28:26.285Z,91.97
2022-12-29T16:31:24.834Z,92.11
2022-12-29T16:34:32.887Z,92.13
2022-12-29T16:37:23.627Z,92.04
2022-12-29T16:40:21.279Z,92.29
2022-12-29T16:43:36.431Z,92.39
2022-12-29T16:46:31.112Z,92.44
2022-12-29T16:49:21.924Z,92.47
2022-12-29T16:51:49.161Z,92.61
2022-12-29T16:54:59.201Z,92.76
2022-12-29T16:57:32.802Z,92.63
2022-12-29T17:00:33.009Z,92.70
2022-12-29T17:03:46.599Z,93.15
2022-12-29T17:06:17.921Z,93.21
2022-12-29T17:09:02.471Z,93.22
2022-12-29T17:11:57.730Z,93.16
2022-12-29T17:14:45.639Z,93.51
2022-12-29T17:17:20.677Z,93.52
2022-12-29T17:23:32.827Z,93.60
2022-12-29T17:25:59.699Z,93.63
2022-12-29T17:32:17.101Z,93.90
2022-12-29T17:34:43.827Z,93.55
2022-12-29T17:37:37.998Z,94.07
2022-12-29T17:47:51.304Z,94.22
2022-12-29T17:50:26.837Z,93.89
2022-12-29T17:57:04.819Z,93.87
2022-12-29T17:59:39.845Z,94.21
2022-12-29T18:02:39.912Z,94.32
2022-12-29T18:05:42.769Z,94.13
2022-12-29T18:08:12.024Z,94.11
2022-12-29T18:10:40.046Z,94.19
2022-12-29T18:13:07.301Z,94.41
2022-12-29T18:15:36.363Z,94.37
2022-12-29T18:18:14.441Z,94.58
2022-12-29T18:20:43.235Z,94.53
2022-12-29T18:23:21.995Z,94.35
2022-12-29T18:26:50.639Z,94.73
2022-12-29T18:36:53.120Z,94.45
2022-12-29T18:39:20.647Z,94.75
2022-12-29T18:42:27.021Z,94.70
2022-12-29T18:44:53.661Z,94.86
2022-12-29T18:47:23.950Z,94.76
2022-12-29T18:50:11.355Z,94.56
2022-12-29T18:52:37.999Z,94.96
2022-12-29T18:58:44.884Z,95.05
2022-12-29T19:01:37.839Z,94.90
2022-12-29T19:04:28.271Z,95.24
2022-12-29T19:06:54.919Z,95.20
2022-12-29T19:09:21.538Z,95.55
2022-12-29T19:11:48.625Z,95.06
2022-12-29T19:14:17.493Z,95.33
2022-12-29T19:16:44.422Z,95.32
2022-12-29T19:19:15.101Z,95.12
2022-12-29T19:21:42.185Z,95.21
2022-12-29T19:24:08.885Z,95.19
2022-12-29T19:26:38.130Z,95.25
2022-12-29T19:29:06.871Z,95.46
2022-12-29T19:32:15.934Z,95.23
2022-12-29T19:34:58.289Z,95.37
2022-12-29T19:37:24.963Z,95.45
2022-12-29T19:39:51.705Z,95.03
2022-12-29T19:42:18.342Z,95.24
2022-12-29T19:52:27.613Z,95.33
2022-12-29T19:55:13.377Z,95.09
2022-12-29T19:58:03.210Z,95.33
2022-12-29T20:00:40.166Z,95.27
2022-12-29T20:03:41.828Z,95.02
2022-12-29T20:06:28.781Z,95.07
2022-12-29T20:09:15.999Z,95.05
2022-12-29T20:11:43.963Z,95.21
2022-12-29T20:14:40.216Z,95.20
2022-12-29T20:18:11.796Z,95.04
2022-12-29T20:28:08.550Z,94.78
2022-12-29T20:30:35.719Z,94.74
2022-12-29T20:33:08.000Z,94.69
2022-12-29T20:39:56.303Z,94.59
2022-12-29T20:42:43.215Z,94.59
2022-12-29T20:45:10.103Z,94.44
2022-12-29T20:52:07.336Z,94.23
2022-12-29T20:54:39.164Z,94.10
2022-12-29T20:57:06.469Z,94.13
2022-12-29T21:00:01.078Z,93.96
2022-12-29T21:02:27.908Z,94.16
2022-12-29T21:09:22.996Z,94.04
2022-12-29T21:11:49.696Z,94.37
2022-12-29T21:14:16.766Z,93.81
2022-12-29T21:22:17.650Z,93.91
2022-12-29T21:25:25.077Z,93.70
2022-12-29T21:27:52.920Z,93.65
2022-12-29T21:30:19.613Z,93.76
2022-12-29T21:33:34.672Z,93.68
2022-12-29T21:51:51.218Z,93.53
2022-12-29T21:54:44.774Z,93.40
2022-12-29T21:57:19.349Z,93.49
2022-12-29T22:00:06.367Z,93.96
2022-12-29T22:02:51.433Z,93.89
2022-12-29T22:05:48.547Z,94.18
2022-12-29T22:08:34.149Z,94.23
2022-12-29T22:11:19.403Z,94.63
2022-12-29T22:13:46.101Z,94.63
2022-12-29T22:16:12.981Z,95.00
2022-12-29T22:18:39.793Z,95.25
2022-12-29T22:21:08.257Z,95.39
2022-12-29T22:23:36.378Z,95.76
2022-12-29T22:26:57.889Z,95.99
2022-12-29T22:29:26.839Z,96.09
2022-12-29T22:32:46.745Z,96.40
2022-12-29T22:35:20.904Z,96.60
2022-12-29T22:37:47.564Z,96.99
2022-12-29T22:40:14.254Z,97.15
2022-12-29T22:42:40.994Z,97.17
2022-12-29T22:45:08.515Z,97.48
2022-12-29T22:47:35.501Z,97.88
2022-12-29T22:50:02.642Z,97.93
2022-12-29T22:52:29.433Z,98.19
2022-12-29T22:55:04.574Z,98.18
2022-12-29T22:58:29.248Z,98.48
2022-12-29T23:01:17.940Z,98.78
2022-12-29T23:05:02.849Z,98.96
2022-12-29T23:07:31.236Z,99.17
2022-12-29T23:09:57.875Z,99.05
2022-12-29T23:12:58.313Z,99.25
2022-12-29T23:15:44.069Z,99.36
2022-12-29T23:18:17.674Z,99.44
2022-12-29T23:25:01.582Z,99.91
2022-12-29T23:31:56.904Z,99.93
2022-12-29T23:43:41.027Z,99.63
2022-12-29T23:46:15.594Z,99.55
2022-12-29T23:48:42.891Z,99.72
2022-12-29T23:51:10.346Z,99.79
2022-12-29T23:57:50.608Z,100.00
